Time;durP1;ratioP1;P1;durP2;ratioP2;P2;SDS_P1;SDS_P2;PMS_P1;PMS_P2;Temp;Humidity;BMP_temperature;BMP_pressure;BME280_temperature;BME280_humidity;BME280_pressure;Samples;Min_cycle;Max_cycle;Signal;HPM_P1;HPM_P2
2023/09/28 00:46:11;;;;;;;11.95;7.70;;;;;;;18.08;94.05;100771.31;2153550;23;20033;-81
2023/09/28 00:48:46;;;;;;;9.93;7.43;;;;;;;17.88;94.05;100734.22;5023427;28;20049;-82
2023/09/28 00:51:13;;;;;;;8.25;7.13;;;;;;;17.97;93.99;100755.19;5014335;28;20046;-83
2023/09/28 00:53:42;;;;;;;8.25;7.07;;;;;;;17.99;94.04;100748.69;5015173;28;20046;-83
2023/09/28 00:56:09;;;;;;;11.18;7.53;;;;;;;18.00;93.96;100745.00;5017708;28;20082;-82
2023/09/28 00:58:37;;;;;;;10.20;7.43;;;;;;;18.00;93.70;100742.38;5002150;28;20056;-81
2023/09/28 01:01:06;;;;;;;11.23;7.90;;;;;;;18.02;93.73;100744.81;5026077;23;20049;-78
2023/09/28 01:03:34;;;;;;;12.10;7.60;;;;;;;18.04;93.73;100743.59;5015083;28;20081;-77
2023/09/28 01:06:05;;;;;;;8.55;7.65;;;;;;;17.99;93.87;100747.88;5014243;28;20132;-77
2023/09/28 01:08:31;;;;;;;8.55;7.35;;;;;;;17.95;93.55;100742.19;5013311;28;20358;-77
2023/09/28 01:10:58;;;;;;;9.40;7.45;;;;;;;17.96;93.28;100738.50;5018463;28;20046;-77
2023/09/28 01:13:24;;;;;;;9.80;7.68;;;;;;;17.98;93.13;100736.47;5027806;28;20049;-76
2023/09/28 01:15:51;;;;;;;10.85;7.50;;;;;;;17.94;93.16;100735.25;5027397;28;20046;-77
2023/09/28 01:18:18;;;;;;;9.98;7.47;;;;;;;17.94;93.15;100732.59;5030383;28;20049;-77
2023/09/28 01:20:49;;;;;;;8.02;7.07;;;;;;;17.95;93.01;100721.00;5034425;28;20045;-76
2023/09/28 01:23:16;;;;;;;10.38;6.82;;;;;;;17.89;93.08;100729.75;5024888;28;20087;-76
2023/09/28 01:25:45;;;;;;;8.48;7.43;;;;;;;17.89;93.12;100719.16;5025912;28;20056;-78
2023/09/28 01:28:10;;;;;;;11.63;7.00;;;;;;;17.90;93.08;100731.38;5023038;28;20133;-78
2023/09/28 01:30:37;;;;;;;8.15;7.05;;;;;;;17.87;93.36;100740.53;5021997;28;20567;-77
2023/09/28 01:33:04;;;;;;;9.30;7.72;;;;;;;17.83;93.61;100738.50;5024143;28;20120;-77
2023/09/28 01:35:30;;;;;;;10.38;7.28;;;;;;;17.88;93.56;100734.22;5025887;28;20060;-79
2023/09/28 01:38:03;;;;;;;10.40;6.93;;;;;;;17.81;94.01;100737.88;5024125;28;20045;-78
2023/09/28 01:40:30;;;;;;;9.68;7.55;;;;;;;17.73;94.25;100740.69;5019975;28;20049;-77
2023/09/28 01:42:57;;;;;;;10.32;7.40;;;;;;;17.75;94.34;100749.25;5024241;28;20046;-77
2023/09/28 01:45:23;;;;;;;10.65;7.30;;;;;;;17.70;94.48;100733.97;5023978;28;20077;-77
2023/09/28 01:47:50;;;;;;;8.23;7.20;;;;;;;17.75;94.79;100750.06;5022138;28;20056;-75
2023/09/28 01:50:15;;;;;;;7.70;7.00;;;;;;;17.73;94.73;100756.59;5033300;28;20051;-78
2023/09/28 01:52:42;;;;;;;8.07;7.07;;;;;;;17.71;94.68;100756.78;5034007;28;20128;-77
2023/09/28 01:55:08;;;;;;;10.23;8.00;;;;;;;17.71;95.04;100748.03;5033313;28;20061;-77
2023/09/28 01:57:36;;;;;;;8.35;7.10;;;;;;;17.76;94.49;100758.84;5033470;28;20152;-77
2023/09/28 02:00:05;;;;;;;7.70;6.80;;;;;;;17.76;94.81;100754.34;5033096;28;20058;-78
2023/09/28 02:02:34;;;;;;;7.82;7.03;;;;;;;17.75;94.77;100743.97;5032949;28;20053;-78
2023/09/28 02:05:02;;;;;;;10.65;7.05;;;;;;;17.74;95.18;100763.50;5032905;28;20136;-78
2023/09/28 02:07:29;;;;;;;8.85;7.20;;;;;;;17.69;95.12;100761.47;5028234;28;20061;-79
2023/09/28 02:09:54;;;;;;;12.35;7.82;;;;;;;17.66;95.19;100758.38;5031208;28;20511;-78
2023/09/28 02:12:21;;;;;;;8.88;7.47;;;;;;;17.65;95.59;100759.38;5033658;28;20083;-78
2023/09/28 02:14:48;;;;;;;12.35;7.60;;;;;;;17.54;95.75;100753.63;5034105;28;20124;-78
2023/09/28 02:17:14;;;;;;;11.18;7.72;;;;;;;17.52;96.14;100763.59;5035649;28;20045;-77
2023/09/28 02:19:40;;;;;;;13.00;8.38;;;;;;;17.54;96.19;100760.75;5038798;28;20369;-78
2023/09/28 02:22:09;;;;;;;10.65;7.78;;;;;;;17.55;96.11;100773.78;5041907;28;20057;-78
2023/09/28 02:24:34;;;;;;;10.43;7.90;;;;;;;17.52;96.59;100766.25;5042930;28;20049;-78
2023/09/28 02:27:01;;;;;;;8.85;7.70;;;;;;;17.51;96.92;100775.19;5038193;28;20433;-78
2023/09/28 02:29:26;;;;;;;12.95;8.45;;;;;;;17.46;97.12;100776.81;5033537;28;20054;-79
2023/09/28 02:31:54;;;;;;;8.40;7.47;;;;;;;17.39;97.47;100782.09;5031980;28;20499;-78
2023/09/28 02:34:20;;;;;;;9.35;7.55;;;;;;;17.32;97.53;100783.88;5031961;28;20103;-79
2023/09/28 02:36:47;;;;;;;12.27;7.95;;;;;;;17.25;97.66;100785.66;5025185;28;20054;-78
2023/09/28 02:39:13;;;;;;;10.35;7.63;;;;;;;17.16;97.78;100787.66;5025075;28;20498;-77
2023/09/28 02:41:39;;;;;;;9.95;8.00;;;;;;;17.10;98.12;100779.69;5032388;28;20117;-77
2023/09/28 02:44:06;;;;;;;9.68;7.50;;;;;;;17.09;98.15;100778.88;5032096;28;20113;-77
2023/09/28 02:46:32;;;;;;;8.85;7.57;;;;;;;17.00;98.37;100788.00;5031881;28;20050;-77
2023/09/28 02:49:01;;;;;;;8.05;7.10;;;;;;;17.05;98.09;100792.66;5031346;28;20137;-78
2023/09/28 02:51:26;;;;;;;11.77;7.82;;;;;;;17.03;98.20;100789.41;5031665;28;20530;-77
2023/09/28 02:53:53;;;;;;;11.65;7.47;;;;;;;17.00;98.26;100795.09;5031113;28;20045;-78
2023/09/28 02:56:20;;;;;;;8.63;7.00;;;;;;;17.00;98.14;100797.75;5031806;28;20459;-77
2023/09/28 02:58:45;;;;;;;10.02;7.20;;;;;;;17.00;98.24;100797.75;5031779;28;20053;-76
2023/09/28 03:01:12;;;;;;;11.40;7.50;;;;;;;16.94;98.63;100799.34;5031773;28;20136;-77
2023/09/28 03:03:38;;;;;;;8.30;7.50;;;;;;;16.89;98.88;100805.19;5031536;28;20057;-77
2023/09/28 03:06:06;;;;;;;11.73;7.93;;;;;;;16.82;99.26;100799.03;5031474;28;20527;-77
2023/09/28 03:08:31;;;;;;;8.75;7.88;;;;;;;16.84;99.12;100785.63;5031617;28;20174;-77
2023/09/28 03:10:58;;;;;;;8.98;7.38;;;;;;;16.81;99.30;100805.34;5029794;28;20519;-77
2023/09/28 03:13:25;;;;;;;10.73;7.90;;;;;;;16.78;99.49;100794.31;5032517;28;20507;-76
2023/09/28 03:15:51;;;;;;;8.82;7.82;;;;;;;16.81;99.67;100804.50;5030967;28;20079;-77
2023/09/28 03:18:17;;;;;;;10.95;7.50;;;;;;;16.79;99.66;100817.91;5031970;28;20064;-77
2023/09/28 03:20:45;;;;;;;10.73;8.23;;;;;;;16.78;99.80;100811.00;5032221;28;20191;-76
2023/09/28 03:23:12;;;;;;;10.52;8.20;;;;;;;16.77;99.93;100813.84;5029573;28;20054;-76
2023/09/28 03:25:39;;;;;;;12.48;8.13;;;;;;;16.70;100.00;100812.97;5026367;28;20052;-76
2023/09/28 03:28:05;;;;;;;10.73;7.70;;;;;;;16.70;100.00;100819.06;5030357;28;20175;-76
2023/09/28 03:30:31;;;;;;;9.75;7.80;;;;;;;16.63;100.00;100823.44;5030424;28;20574;-76
2023/09/28 03:32:58;;;;;;;10.70;7.70;;;;;;;16.64;100.00;100830.41;5030110;28;20051;-77
2023/09/28 03:35:26;;;;;;;11.30;8.65;;;;;;;16.62;100.00;100827.09;5023741;28;20400;-77
2023/09/28 03:37:54;;;;;;;11.85;8.80;;;;;;;16.58;100.00;100821.38;5030618;28;20045;-77
2023/09/28 03:40:22;;;;;;;10.43;8.07;;;;;;;16.59;100.00;100827.47;5030831;28;20140;-76
2023/09/28 03:42:49;;;;;;;11.70;8.60;;;;;;;16.56;100.00;100833.13;5029107;28;20176;-77
2023/09/28 03:45:19;;;;;;;13.48;8.32;;;;;;;16.52;100.00;100834.53;5030761;28;20470;-77
2023/09/28 03:47:46;;;;;;;12.48;8.40;;;;;;;16.45;100.00;100839.78;5035078;28;20053;-77
2023/09/28 03:50:13;;;;;;;12.95;8.73;;;;;;;16.54;100.00;100838.59;5029461;28;20081;-78
2023/09/28 03:52:41;;;;;;;11.35;9.00;;;;;;;16.55;100.00;100848.16;5030558;28;20428;-77
2023/09/28 03:55:10;;;;;;;9.50;8.52;;;;;;;16.48;100.00;100844.69;5028288;28;20161;-77
2023/09/28 03:57:38;;;;;;;9.75;8.73;;;;;;;16.46;100.00;100848.50;5031425;28;20128;-78
2023/09/28 04:00:06;;;;;;;9.27;8.15;;;;;;;16.41;100.00;100846.44;5028484;28;20103;-78
2023/09/28 04:02:33;;;;;;;10.93;8.85;;;;;;;16.39;100.00;100842.34;5030685;28;20435;-78
2023/09/28 04:05:01;;;;;;;10.63;8.98;;;;;;;16.37;100.00;100860.19;5032330;28;20053;-78
2023/09/28 04:07:27;;;;;;;11.48;9.63;;;;;;;16.37;100.00;100860.19;5032478;28;20076;-78
2023/09/28 04:09:57;;;;;;;10.20;9.07;;;;;;;16.38;100.00;100856.56;5030695;28;20053;-76
2023/09/28 04:12:24;;;;;;;12.73;10.02;;;;;;;16.36;100.00;100858.56;5030218;28;20128;-77
2023/09/28 04:14:52;;;;;;;12.95;9.60;;;;;;;16.30;100.00;100870.69;5031097;28;20087;-77
2023/09/28 04:17:19;;;;;;;12.23;9.50;;;;;;;16.24;100.00;100876.72;5023261;28;20049;-77
2023/09/28 04:19:46;;;;;;;11.88;9.70;;;;;;;16.20;100.00;100886.81;5030213;28;20045;-77
2023/09/28 04:22:13;;;;;;;13.82;10.45;;;;;;;16.21;100.00;100887.66;5028169;28;20046;-76
2023/09/28 04:24:39;;;;;;;12.48;10.00;;;;;;;16.30;100.00;100878.63;5030034;28;20073;-77
2023/09/28 04:27:08;;;;;;;11.35;10.13;;;;;;;16.25;100.00;100888.91;5027703;28;20577;-77
2023/09/28 04:29:35;;;;;;;12.07;10.80;;;;;;;16.20;100.00;100886.00;5029317;28;20125;-77
2023/09/28 04:32:18;;;;;;;17.88;11.50;;;;;;;16.13;100.00;100883.28;5030326;28;20452;-78
2023/09/28 04:34:52;;;;;;;15.88;10.85;;;;;;;16.11;100.00;100900.31;5031814;28;20067;-78
2023/09/28 04:37:37;;;;;;;14.00;11.43;;;;;;;15.91;100.00;100881.63;5022516;28;20080;-78
2023/09/28 04:40:24;;;;;;;13.07;11.63;;;;;;;16.00;100.00;100887.63;5014022;28;20050;-78
2023/09/28 04:48:33;;;;;;;14.52;12.88;;;;;;;15.71;100.00;100881.38;5017100;28;20054;-79
2023/09/28 04:51:00;;;;;;;19.80;13.80;;;;;;;15.63;100.00;100884.09;5016538;28;20050;-79
2023/09/28 04:53:27;;;;;;;20.60;15.05;;;;;;;15.64;100.00;100892.84;5014437;28;20128;-78
2023/09/28 04:55:55;;;;;;;15.93;14.23;;;;;;;15.60;100.00;100889.72;5023740;28;20284;-78
2023/09/28 04:58:22;;;;;;;16.10;14.40;;;;;;;15.55;100.00;100898.19;5021110;28;20066;-78
2023/09/28 05:00:49;;;;;;;19.35;13.60;;;;;;;15.56;100.00;100904.28;5022744;28;20081;-79
2023/09/28 05:03:16;;;;;;;17.85;13.07;;;;;;;15.56;100.00;100893.72;5026655;28;20081;-79
2023/09/28 05:05:44;;;;;;;16.35;14.38;;;;;;;15.47;100.00;100876.34;5017239;28;20053;-79
2023/09/28 05:08:14;;;;;;;16.88;15.07;;;;;;;15.54;100.00;100896.56;5043177;28;20083;-79
2023/09/28 05:10:42;;;;;;;25.52;15.27;;;;;;;15.55;100.00;100892.09;5049891;28;20577;-78
2023/09/28 05:13:10;;;;;;;21.27;15.23;;;;;;;15.51;100.00;100893.47;5041443;28;20554;-76
2023/09/28 05:15:36;;;;;;;23.10;15.40;;;;;;;15.47;100.00;100895.63;5033302;28;20049;-77
2023/09/28 05:18:06;;;;;;;18.98;15.70;;;;;;;15.43;100.00;100904.91;5032896;28;20132;-76
2023/09/28 05:20:33;;;;;;;16.92;14.45;;;;;;;15.42;100.00;100903.28;5026741;28;20050;-76
2023/09/28 05:23:02;;;;;;;18.48;15.93;;;;;;;15.49;100.00;100908.66;5013307;28;20050;-77
2023/09/28 05:25:37;;;;;;;20.95;16.73;;;;;;;15.44;100.00;100903.91;5018553;28;20420;-76
2023/09/28 05:28:05;;;;;;;16.65;14.60;;;;;;;15.49;100.00;100904.19;5020664;28;20049;-76
2023/09/28 05:30:32;;;;;;;22.23;15.95;;;;;;;15.41;100.00;100896.34;5026252;28;20045;-76
2023/09/28 05:32:58;;;;;;;17.88;15.48;;;;;;;15.47;100.00;100900.91;5033062;28;20479;-77
2023/09/28 05:35:25;;;;;;;17.95;16.17;;;;;;;15.46;100.00;100898.47;5033056;28;20049;-77
2023/09/28 05:37:52;;;;;;;18.88;16.88;;;;;;;15.42;100.00;100900.63;5032244;28;20129;-77
2023/09/28 05:40:21;;;;;;;20.52;17.25;;;;;;;15.32;100.00;100905.34;5012860;28;20423;-77
2023/09/28 05:42:48;;;;;;;18.85;16.88;;;;;;;15.41;100.00;100906.91;5015391;28;20061;-77
2023/09/28 05:45:15;;;;;;;22.00;16.70;;;;;;;15.44;100.00;100916.28;5025305;28;20049;-77
2023/09/28 05:47:42;;;;;;;19.00;16.48;;;;;;;15.48;100.00;100912.28;5032640;28;20080;-77
2023/09/28 05:50:10;;;;;;;19.35;16.40;;;;;;;15.52;100.00;100910.91;5023554;28;20051;-76
2023/09/28 05:52:36;;;;;;;17.88;16.02;;;;;;;15.53;100.00;100920.47;5032211;28;20060;-78
2023/09/28 05:55:05;;;;;;;19.00;16.63;;;;;;;15.57;100.00;100935.78;5031622;28;20092;-76
2023/09/28 05:57:33;;;;;;;18.85;15.38;;;;;;;15.68;100.00;100949.50;5031276;28;20118;-77
2023/09/28 06:00:00;;;;;;;17.63;15.73;;;;;;;15.78;100.00;100942.97;5031556;28;20132;-77
2023/09/28 06:02:26;;;;;;;18.55;14.48;;;;;;;15.82;100.00;100961.88;4988317;28;1155899;-77
2023/09/28 06:04:53;;;;;;;19.35;14.60;;;;;;;15.82;100.00;100956.59;5013793;28;20049;-76
2023/09/28 06:07:23;;;;;;;19.52;15.18;;;;;;;15.82;100.00;100952.16;5032434;28;20060;-77
2023/09/28 06:12:44;;;;;;;19.92;14.25;;;;;;;15.83;100.00;100952.97;5130296;27;20394;-76
2023/09/28 06:15:11;;;;;;;20.70;13.98;;;;;;;15.91;100.00;100956.34;5116389;28;20039;-77
2023/09/28 06:17:38;;;;;;;18.80;14.38;;;;;;;16.01;100.00;100958.72;5117051;28;20111;-77
2023/09/28 06:20:07;;;;;;;23.15;15.02;;;;;;;16.09;100.00;100953.31;5115158;28;20054;-79
2023/09/28 06:22:34;;;;;;;21.50;14.13;;;;;;;16.24;100.00;100959.38;5110554;27;20480;-77
2023/09/28 06:25:02;;;;;;;15.68;13.75;;;;;;;16.59;100.00;100956.91;5147370;22;20063;-79
2023/09/28 06:27:29;;;;;;;17.85;12.48;;;;;;;16.90;100.00;100959.31;5116387;28;20217;-80
2023/09/28 06:29:57;;;;;;;19.50;12.00;;;;;;;17.32;99.58;100958.44;5116335;28;20055;-80
2023/09/28 06:32:24;;;;;;;12.52;11.23;;;;;;;17.98;96.93;100956.22;5112411;28;20063;-81
2023/09/28 06:34:50;;;;;;;13.02;10.43;;;;;;;17.94;94.30;100936.47;5116272;28;20086;-81
2023/09/28 06:37:17;;;;;;;13.88;10.18;;;;;;;18.08;93.39;100945.25;5116134;28;20097;-80
2023/09/28 06:39:44;;;;;;;15.85;10.32;;;;;;;18.48;92.35;100946.22;5116546;28;20101;-80
2023/09/28 06:42:11;;;;;;;15.35;9.30;;;;;;;18.56;91.24;100938.91;5117643;28;20055;-81
2023/09/28 06:44:38;;;;;;;12.60;9.90;;;;;;;18.93;90.02;100941.22;5111085;28;20130;-81
2023/09/28 06:47:07;;;;;;;13.15;9.38;;;;;;;19.22;89.29;100938.16;5122173;28;20053;-83
2023/09/28 06:49:34;;;;;;;16.20;9.68;;;;;;;19.85;86.61;100927.84;5122273;28;20089;-83
2023/09/28 06:52:01;;;;;;;13.85;9.32;;;;;;;19.48;86.52;100937.31;5117080;28;20052;-83
2023/09/28 06:54:28;;;;;;;13.90;9.00;;;;;;;19.75;85.58;100948.72;5119291;28;20054;-81
2023/09/28 06:56:54;;;;;;;13.95;9.02;;;;;;;20.28;84.85;100954.66;5125684;28;20051;-80
2023/09/28 06:59:22;;;;;;;11.15;8.20;;;;;;;20.77;83.16;100967.31;5125405;28;20178;-82
2023/09/28 07:01:49;;;;;;;13.65;8.00;;;;;;;20.67;82.17;100948.34;5119806;28;20074;-81
2023/09/28 07:04:17;;;;;;;12.68;8.27;;;;;;;20.40;82.72;100960.13;5116023;28;20069;-81
2023/09/28 07:06:44;;;;;;;10.75;7.55;;;;;;;20.78;82.77;100963.63;5116015;28;20115;-81
2023/09/28 07:09:12;;;;;;;14.45;8.02;;;;;;;20.97;82.76;100972.47;5116948;28;20098;-82
2023/09/28 07:11:38;;;;;;;11.52;8.05;;;;;;;21.05;81.81;100976.72;5114610;28;20226;-82
2023/09/28 07:14:06;;;;;;;16.60;8.10;;;;;;;20.94;81.79;100985.38;5114650;28;20044;-82
2023/09/28 07:16:34;;;;;;;11.05;7.38;;;;;;;20.86;82.31;100983.78;5115605;28;20052;-83
2023/09/28 07:19:03;;;;;;;9.88;6.38;;;;;;;21.20;82.25;100991.34;5116427;28;20516;-82
2023/09/28 07:21:31;;;;;;;10.13;7.05;;;;;;;21.25;82.08;100988.06;5114924;28;20044;-81
2023/09/28 07:24:00;;;;;;;10.85;6.85;;;;;;;21.29;82.37;100991.88;5100114;28;20044;-83
2023/09/28 07:26:29;;;;;;;10.73;6.60;;;;;;;21.00;83.01;100985.34;5100141;28;20131;-82
2023/09/28 07:28:56;;;;;;;9.70;7.10;;;;;;;21.14;83.35;100994.84;5102852;28;20151;-82
2023/09/28 07:31:22;;;;;;;13.20;7.15;;;;;;;20.95;84.30;100998.47;5108607;28;20135;-85
2023/09/28 07:33:49;;;;;;;9.88;6.97;;;;;;;21.32;83.34;100995.97;5106746;28;20164;-84
2023/09/28 07:36:16;;;;;;;13.43;7.07;;;;;;;21.74;82.18;100979.16;5100671;28;20048;-83
2023/09/28 07:38:47;;;;;;;10.68;7.13;;;;;;;22.16;81.21;100998.03;5105524;28;20081;-84
2023/09/28 07:41:13;;;;;;;11.43;6.63;;;;;;;22.60;80.30;100996.03;5104578;28;20100;-83
2023/09/28 07:43:40;;;;;;;10.45;6.40;;;;;;;22.95;79.24;100993.47;5105918;28;20056;-83
2023/09/28 07:46:07;;;;;;;9.55;6.65;;;;;;;23.18;77.87;100997.00;5103878;28;20048;-84
2023/09/28 07:48:34;;;;;;;9.75;5.85;;;;;;;23.54;76.40;100997.06;5103607;28;20101;-84
2023/09/28 07:51:16;;;;;;;13.30;6.45;;;;;;;23.64;75.79;100986.59;5103833;28;20123;-84
2023/09/28 07:53:57;;;;;;;;;;;;;;;;;;;;;
2023/09/28 07:56:28;;;;;;;10.03;5.67;;;;;;;23.89;73.86;101000.50;5098677;28;20583;-82
2023/09/28 07:59:09;;;;;;;12.20;5.70;;;;;;;23.90;73.81;100980.75;5102873;28;20501;-84
2023/09/28 08:01:44;;;;;;;10.98;6.00;;;;;;;23.73;75.56;101019.91;5103262;28;20086;-85
2023/09/28 08:04:16;;;;;;;7.68;5.60;;;;;;;23.18;76.25;100985.50;5100879;28;20484;-84
2023/09/28 08:07:07;;;;;;;7.88;5.30;;;;;;;23.23;77.05;100993.63;5101836;28;20048;-84
2023/09/28 08:09:58;;;;;;;11.95;6.20;;;;;;;23.08;76.51;100993.28;5096455;28;20047;-84
2023/09/28 08:15:54;;;;;;;;;;;;;;;;;;;;;
2023/09/28 08:18:37;;;;;;;12.05;5.80;;;;;;;22.67;76.98;100976.22;5096160;28;20071;-83
2023/09/28 08:21:28;;;;;;;10.05;5.80;;;;;;;22.68;78.21;101014.38;5101646;28;20126;-83
2023/09/28 08:24:00;;;;;;;13.02;6.35;;;;;;;23.03;77.44;101006.50;5100584;28;20052;-83
2023/09/28 08:27:05;;;;;;;9.98;5.90;;;;;;;22.99;76.73;100989.31;5101402;28;20047;-83
2023/09/28 08:29:37;;;;;;;10.68;6.22;;;;;;;22.56;78.77;101014.31;5097980;28;20051;-81
2023/09/28 08:32:26;;;;;;;9.85;6.22;;;;;;;22.69;79.28;101016.78;5102611;28;20079;-82
2023/09/28 08:35:38;;;;;;;13.88;6.30;;;;;;;22.91;78.46;101029.66;5097694;28;20056;-84
2023/09/28 08:38:05;;;;;;;11.55;6.55;;;;;;;22.80;77.67;101002.72;5093748;28;20098;-83
2023/09/28 08:40:54;;;;;;;9.40;6.30;;;;;;;22.57;77.91;101013.28;5096451;28;20090;-84
2023/09/28 08:43:58;;;;;;;16.33;6.10;;;;;;;22.34;79.82;101039.81;5086608;28;20067;-83
2023/09/28 08:46:55;;;;;;;15.93;6.32;;;;;;;22.32;80.17;101052.56;5089061;28;20123;-83
2023/09/28 08:50:06;;;;;;;11.95;6.43;;;;;;;21.89;81.60;101053.41;5095362;28;20467;-84
2023/09/28 08:52:36;;;;;;;11.98;6.65;;;;;;;21.70;82.19;101049.09;5098766;28;20043;-84
2023/09/28 08:55:12;;;;;;;13.32;6.38;;;;;;;21.52;82.21;101034.69;5101053;28;20074;-83
2023/09/28 08:57:41;;;;;;;17.42;6.93;;;;;;;21.40;82.85;101039.09;5103696;28;20055;-84
2023/09/28 09:00:30;;;;;;;10.15;6.18;;;;;;;21.97;82.86;101069.09;5100971;28;20052;-84
2023/09/28 09:02:58;;;;;;;17.73;6.63;;;;;;;22.27;81.07;101044.41;5091778;28;20470;-84
2023/09/28 09:05:29;;;;;;;11.00;5.93;;;;;;;22.28;80.08;101033.53;5096675;28;20052;-83
2023/09/28 09:07:57;;;;;;;14.95;6.05;;;;;;;22.80;78.70;101034.72;5104610;28;20048;-84
2023/09/28 09:10:27;;;;;;;13.57;6.00;;;;;;;22.87;78.80;101028.50;5106500;28;20100;-84
2023/09/28 09:12:55;;;;;;;13.23;6.13;;;;;;;23.11;77.40;101027.53;5105218;28;20058;-84
2023/09/28 09:15:24;;;;;;;12.18;5.55;;;;;;;22.71;77.40;101032.56;5103298;28;20134;-83
2023/09/28 09:17:58;;;;;;;11.95;5.90;;;;;;;22.70;78.63;101045.09;5099285;28;20493;-83
2023/09/28 09:20:30;;;;;;;14.60;6.28;;;;;;;22.77;78.66;101056.50;5097293;28;20056;-84
2023/09/28 09:22:56;;;;;;;10.80;6.38;;;;;;;22.62;79.42;101066.78;5099107;28;20040;-83
2023/09/28 09:25:23;;;;;;;13.23;6.18;;;;;;;22.51;79.72;101067.53;5103060;28;20115;-84
2023/09/28 09:27:50;;;;;;;15.68;6.35;;;;;;;22.88;79.31;101062.13;5103932;28;20079;-83
2023/09/28 09:30:17;;;;;;;12.63;6.10;;;;;;;22.87;79.21;101064.00;5094817;28;20125;-83
2023/09/28 09:32:46;;;;;;;12.65;6.15;;;;;;;22.92;78.64;101056.13;5104585;28;20051;-85
2023/09/28 09:35:13;;;;;;;12.18;6.00;;;;;;;22.93;78.55;101060.41;5100956;28;20048;-83
2023/09/28 09:37:41;;;;;;;16.20;6.00;;;;;;;23.14;77.66;101051.91;5103845;28;20189;-84
2023/09/28 09:40:16;;;;;;;10.27;6.18;;;;;;;23.28;76.85;101044.47;5096943;28;20130;-84
2023/09/28 09:42:45;;;;;;;10.60;5.95;;;;;;;22.86;77.51;101059.69;5102632;28;20058;-84
2023/09/28 09:45:12;;;;;;;18.83;6.75;;;;;;;22.35;79.24;101070.78;5101381;28;20075;-84
2023/09/28 09:47:48;;;;;;;16.67;6.15;;;;;;;22.25;79.26;101051.81;5103066;28;20052;-84
2023/09/28 09:50:16;;;;;;;18.92;6.28;;;;;;;22.42;79.22;101061.66;5100247;28;20071;-84
2023/09/28 09:52:47;;;;;;;12.65;5.90;;;;;;;22.85;78.25;101052.72;5098590;28;20044;-84
2023/09/28 09:55:14;;;;;;;12.85;6.60;;;;;;;23.01;77.35;101033.41;5102553;28;20051;-84
2023/09/28 09:57:43;;;;;;;11.48;6.18;;;;;;;23.41;76.34;101052.28;5102962;28;20044;-83
2023/09/28 10:00:15;;;;;;;11.02;5.68;;;;;;;23.08;77.16;101052.81;5102533;28;20111;-82
2023/09/28 10:02:47;;;;;;;14.05;6.10;;;;;;;22.87;77.47;101056.00;5100813;28;20058;-83
2023/09/28 10:05:16;;;;;;;9.73;6.28;;;;;;;22.71;78.38;101053.91;5101430;28;20044;-84
2023/09/28 10:07:45;;;;;;;16.08;6.50;;;;;;;23.04;77.93;101056.16;5099868;28;20040;-84
2023/09/28 10:10:18;;;;;;;9.80;6.18;;;;;;;23.30;77.07;101058.41;5098728;28;20080;-84
2023/09/28 10:12:47;;;;;;;11.98;6.25;;;;;;;22.93;78.01;101054.28;5101430;28;20043;-84
2023/09/28 10:15:18;;;;;;;14.20;6.35;;;;;;;23.05;78.53;101058.59;5099205;28;20494;-84
2023/09/28 10:18:01;;;;;;;14.25;6.13;;;;;;;22.93;78.31;101064.94;5096266;28;20049;-84
2023/09/28 10:20:34;;;;;;;11.75;5.95;;;;;;;23.01;78.40;101072.63;5094448;28;20048;-84
2023/09/28 10:23:12;;;;;;;16.63;6.65;;;;;;;23.00;78.12;101041.66;5096458;28;20044;-84
2023/09/28 10:25:53;;;;;;;11.02;6.47;;;;;;;23.40;77.31;101056.00;5097798;28;20047;-84
2023/09/28 10:28:20;;;;;;;11.18;6.32;;;;;;;23.29;77.45;101064.81;5081555;28;20430;-85
2023/09/28 10:30:47;;;;;;;12.10;6.28;;;;;;;23.33;76.00;101052.63;5087462;28;20067;-84
2023/09/28 10:33:16;;;;;;;14.57;6.18;;;;;;;23.38;76.52;101047.41;5103028;28;20040;-85
2023/09/28 10:35:44;;;;;;;14.60;6.10;;;;;;;23.64;75.97;101040.81;5095661;28;20044;-84
2023/09/28 10:38:21;;;;;;;11.88;5.80;;;;;;;23.98;75.43;101047.22;5099383;28;20056;-84
2023/09/28 10:41:03;;;;;;;19.35;6.30;;;;;;;23.77;74.50;101037.13;5101216;28;20063;-83
2023/09/28 10:43:30;;;;;;;12.35;5.82;;;;;;;23.61;74.94;101045.84;5097591;28;20103;-84
2023/09/28 10:45:57;;;;;;;15.63;6.13;;;;;;;23.44;75.27;101046.50;5107249;28;20066;-83
2023/09/28 10:48:25;;;;;;;11.02;6.05;;;;;;;23.29;75.22;101055.97;5099426;28;20051;-84
2023/09/28 10:50:53;;;;;;;10.57;5.93;;;;;;;23.15;75.52;101060.72;5097848;28;20066;-83
2023/09/28 10:53:19;;;;;;;12.55;5.60;;;;;;;23.35;76.30;101066.56;5098977;28;20044;-84
2023/09/28 10:55:46;;;;;;;13.70;5.88;;;;;;;23.28;76.40;101065.84;5098969;28;20079;-84
2023/09/28 10:58:14;;;;;;;12.57;5.75;;;;;;;23.67;75.05;101050.22;5099703;28;20052;-84
2023/09/28 11:00:41;;;;;;;10.93;5.95;;;;;;;23.83;75.23;101049.53;5102348;28;20083;-83
2023/09/28 11:03:08;;;;;;;14.32;5.80;;;;;;;23.96;74.70;101037.81;5102540;28;20105;-83
2023/09/28 11:05:37;;;;;;;15.20;6.00;;;;;;;23.96;74.23;101027.94;5101923;28;20451;-83
2023/09/28 11:08:04;;;;;;;11.98;6.07;;;;;;;23.71;74.26;101030.03;5102214;28;20047;-83
2023/09/28 11:10:31;;;;;;;10.85;6.00;;;;;;;23.38;74.65;101033.25;5106531;28;20056;-83
2023/09/28 11:12:58;;;;;;;10.02;5.57;;;;;;;23.46;74.87;101020.38;5102706;28;20044;-83
2023/09/28 11:15:29;;;;;;;10.15;5.38;;;;;;;23.44;74.83;101022.44;5107416;28;20141;-83
2023/09/28 11:17:56;;;;;;;12.18;5.60;;;;;;;23.44;74.73;101024.31;5101358;28;20051;-82
2023/09/28 11:20:22;;;;;;;12.98;6.05;;;;;;;23.75;74.53;101021.31;5101853;28;20139;-83
2023/09/28 11:22:56;;;;;;;17.55;5.82;;;;;;;23.54;74.41;101029.94;5106558;28;20078;-83
2023/09/28 11:25:23;;;;;;;10.00;5.78;;;;;;;23.66;74.53;101021.88;5095972;28;20052;-83
2023/09/28 11:27:50;;;;;;;13.88;5.70;;;;;;;23.60;74.71;101028.19;5099497;28;20094;-83
2023/09/28 11:30:19;;;;;;;13.20;5.80;;;;;;;24.05;74.30;101020.38;5091783;28;20520;-83
2023/09/28 11:32:51;;;;;;;11.13;6.20;;;;;;;23.85;73.35;101015.38;5105682;28;20078;-83
2023/09/28 11:35:26;;;;;;;9.75;5.90;;;;;;;23.97;74.03;101015.38;5099043;28;20052;-85
2023/09/28 11:37:59;;;;;;;16.60;6.57;;;;;;;23.69;73.20;101011.56;5109612;28;20051;-83
2023/09/28 11:40:28;;;;;;;13.05;6.25;;;;;;;23.77;74.02;101013.88;5099331;28;20044;-84
2023/09/28 11:42:58;;;;;;;15.30;5.80;;;;;;;23.62;73.97;101015.41;5105781;28;20509;-83
2023/09/28 11:45:29;;;;;;;14.40;6.13;;;;;;;23.41;74.56;101014.91;5104785;28;20107;-84
2023/09/28 11:47:55;;;;;;;10.60;5.88;;;;;;;23.10;75.02;101007.22;5105782;28;20123;-85
2023/09/28 11:50:23;;;;;;;10.07;5.65;;;;;;;23.11;75.54;101008.84;5105806;28;20071;-83
2023/09/28 11:52:51;;;;;;;10.82;5.90;;;;;;;23.10;75.21;101001.88;5104713;28;20098;-83
2023/09/28 11:55:20;;;;;;;10.32;5.85;;;;;;;23.36;75.75;101006.75;5102900;28;20497;-83
2023/09/28 11:57:48;;;;;;;16.23;7.05;;;;;;;23.35;75.45;100999.81;5103996;28;20425;-83
2023/09/28 12:00:19;;;;;;;10.13;5.65;;;;;;;23.38;75.20;100999.34;5103670;28;20051;-84
2023/09/28 12:02:46;;;;;;;16.45;6.28;;;;;;;23.69;74.79;100997.38;5104212;28;20066;-83
2023/09/28 12:05:14;;;;;;;13.25;6.00;;;;;;;23.71;74.47;100987.28;5104013;28;20078;-84
2023/09/28 12:07:41;;;;;;;10.00;5.65;;;;;;;23.96;74.26;100979.81;5103299;28;20162;-83
2023/09/28 12:10:10;;;;;;;11.77;5.35;;;;;;;24.10;73.71;100977.69;5102447;28;20048;-83
2023/09/28 12:12:38;;;;;;;13.43;6.00;;;;;;;24.12;73.43;100973.72;5102302;28;20124;-83
2023/09/28 12:15:10;;;;;;;12.75;6.03;;;;;;;24.12;73.26;100968.38;5098983;28;20473;-82
2023/09/28 12:17:37;;;;;;;12.85;5.90;;;;;;;24.04;73.65;100975.97;5099855;28;20056;-83
2023/09/28 12:20:04;;;;;;;13.38;5.93;;;;;;;24.13;73.37;100972.66;5098517;28;20076;-83
2023/09/28 12:22:31;;;;;;;17.65;6.60;;;;;;;23.96;74.00;100973.66;5099379;28;20079;-82
2023/09/28 12:27:34;;;;;;;10.32;5.72;;;;;;;23.83;74.30;100982.72;4271668;26;20095;-81